aviador You're here:

KFHR Decoded Metar

FRIDAY HARBOR in WA, USA
Report Time2018-05-20 22:53:00
UTC Time2018-05-20 23:26:29
Flight Rules vfr VFR
Wind200° at 08 kt
W.Decomp.*RWY 16: 7.3 kt HW 3.3 kt RCW
W.Rank200° ranks 14
Current wind is above 200° avg. (6.5)
Visibility9999 m
Phenomena:N/A
Clouds:N/A
Expected CloudBase > 3,200 ft AGL from Temp-Dew spread
CeilingNone
Temp17°C (ISA +2)
Dew Point09°C (59% RH)
AAT13.9°C
QNH1018 hPa
Density Alt351 ft
Elevation105 ft
Report Wrong Elevation
Raw Report
KFHR 202253Z AUTO 20008KT 10SM CLR 17/09 A3006 RMK AO2 SLP179
T01670089 TSNO=

Extra information for KFHR:More info

Metar Taf Metar & Taf Last 4 Metars F.Rules Stats Wind Profile Meteogram Temp Stats Airport Information Weather charts Add Link Nearby VenuesMetar ALERT Operation Metar Decoded Social comments

AIRNAV info for KFHR
Kenmore Air